Time;durP1;ratioP1;P1;durP2;ratioP2;P2;SDS_P1;SDS_P2;PMS_P1;PMS_P2;Temp;Humidity;BMP_temperature;BMP_pressure;BME280_temperature;BME280_humidity;BME280_pressure;Samples;Min_cycle;Max_cycle;Signal;HPM_P1;HPM_P2
2023/09/05 00:01:48;;;;;;;5.15;4.65;;;;;;;17.89;62.93;96125.47;4976775;28;20236;-81
2023/09/05 00:04:13;;;;;;;6.03;5.43;;;;;;;17.92;62.51;96125.91;4986809;28;20190;-81
2023/09/05 00:06:40;;;;;;;6.13;4.38;;;;;;;17.91;63.07;96124.28;4981066;28;20200;-80
2023/09/05 00:09:05;;;;;;;5.10;4.60;;;;;;;17.82;62.68;96123.53;4976079;28;20204;-81
2023/09/05 00:11:31;;;;;;;4.90;4.10;;;;;;;17.79;62.63;96125.72;4985725;28;20259;-81
2023/09/05 00:13:56;;;;;;;4.60;4.20;;;;;;;17.83;62.22;96127.81;4984333;28;20188;-81
2023/09/05 00:16:22;;;;;;;5.65;4.78;;;;;;;17.79;62.18;96112.59;4982517;28;20229;-80
2023/09/05 00:18:47;;;;;;;5.18;4.68;;;;;;;17.72;61.83;96117.72;4983184;28;20245;-81
2023/09/05 00:21:15;;;;;;;5.00;4.32;;;;;;;17.72;61.24;96117.72;4973046;28;20184;-81
2023/09/05 00:23:40;;;;;;;6.15;4.30;;;;;;;17.65;60.85;96111.53;4981180;28;20184;-81
2023/09/05 00:26:05;;;;;;;4.50;3.65;;;;;;;17.65;60.70;96114.16;4980592;28;20190;-80
2023/09/05 00:28:31;;;;;;;4.70;4.20;;;;;;;17.64;60.39;96111.69;4984682;28;20704;-80
2023/09/05 00:30:57;;;;;;;5.88;4.50;;;;;;;17.68;59.48;96110.38;4972698;28;20637;-81
2023/09/05 00:33:22;;;;;;;4.57;4.07;;;;;;;17.60;59.88;96110.44;4992457;28;20208;-81
2023/09/05 00:35:53;;;;;;;4.68;3.83;;;;;;;17.64;59.08;96099.38;4976812;28;20230;-81
2023/09/05 00:38:19;;;;;;;5.28;3.92;;;;;;;17.66;58.93;96102.63;4997051;28;20322;-81
2023/09/05 00:40:44;;;;;;;5.88;4.05;;;;;;;17.65;58.72;96098.38;4984947;28;20200;-81
2023/09/05 00:43:09;;;;;;;3.85;3.47;;;;;;;17.61;58.40;96097.13;4972904;28;20190;-82
2023/09/05 00:45:37;;;;;;;8.32;4.10;;;;;;;17.62;57.45;96095.31;4980281;28;20190;-82
2023/09/05 00:48:07;;;;;;;4.45;3.72;;;;;;;17.62;57.35;96093.50;4976532;28;20184;-79
2023/09/05 00:50:32;;;;;;;3.72;3.42;;;;;;;17.63;56.42;96095.13;4984831;28;20583;-81
2023/09/05 00:52:58;;;;;;;5.22;3.40;;;;;;;17.62;56.40;96100.56;4973915;28;20177;-80
2023/09/05 00:55:23;;;;;;;3.92;3.33;;;;;;;17.59;55.70;96091.25;4973586;28;20601;-81
2023/09/05 00:57:49;;;;;;;3.75;3.38;;;;;;;17.51;55.00;96091.31;4973952;28;20239;-81
2023/09/05 01:00:15;;;;;;;5.03;3.60;;;;;;;17.55;54.43;96095.19;4981713;28;20270;-82
2023/09/05 01:02:41;;;;;;;3.72;3.35;;;;;;;17.55;54.21;96095.19;4986087;28;20635;-81
2023/09/05 01:05:07;;;;;;;3.80;3.15;;;;;;;17.50;54.68;96097.56;4989662;28;20178;-79
2023/09/05 01:07:48;;;;;;;3.35;3.05;;;;;;;17.49;54.02;96094.13;4974186;28;20184;-80
2023/09/05 01:10:21;;;;;;;3.50;3.10;;;;;;;17.55;53.19;96093.38;4988654;28;20228;-79
2023/09/05 01:12:47;;;;;;;3.30;3.00;;;;;;;17.44;53.43;96095.63;4982715;28;20184;-81
2023/09/05 01:15:12;;;;;;;5.13;2.90;;;;;;;17.49;53.42;96095.91;4999972;28;20223;-81
2023/09/05 01:17:37;;;;;;;3.30;2.53;;;;;;;17.52;53.21;96087.69;4988712;28;20223;-80
2023/09/05 01:20:05;;;;;;;4.60;3.13;;;;;;;17.51;52.83;96089.50;4986985;28;20215;-82
2023/09/05 01:22:58;;;;;;;5.45;3.25;;;;;;;17.40;52.63;96095.16;4976923;28;20189;-79
2023/09/05 01:25:24;;;;;;;3.75;3.00;;;;;;;17.40;52.52;96102.22;4998713;28;20191;-79
2023/09/05 01:27:49;;;;;;;4.38;2.72;;;;;;;17.48;52.27;96102.16;4982483;28;20188;-80
2023/09/05 01:30:15;;;;;;;3.10;2.72;;;;;;;17.39;52.78;96108.44;4985771;28;20294;-81
2023/09/05 01:32:40;;;;;;;3.53;3.17;;;;;;;17.40;52.21;96099.59;4988306;28;20276;-80
2023/09/05 01:35:06;;;;;;;6.43;3.00;;;;;;;17.40;52.40;96104.84;4983103;28;20196;-80
2023/09/05 01:37:32;;;;;;;4.88;3.35;;;;;;;17.37;52.31;96105.19;4985211;28;20218;-80
2023/09/05 01:39:57;;;;;;;3.00;2.65;;;;;;;17.31;52.52;96103.25;4984418;28;20771;-80
2023/09/05 01:42:22;;;;;;;3.88;3.05;;;;;;;17.22;52.48;96111.19;4987195;28;20192;-80
2023/09/05 01:44:47;;;;;;;5.55;2.95;;;;;;;17.34;52.53;96106.38;4988350;28;20188;-80
2023/09/05 01:47:13;;;;;;;3.75;2.92;;;;;;;17.30;52.05;96105.06;4978707;28;20173;-80
2023/09/05 01:49:38;;;;;;;3.65;2.72;;;;;;;17.30;52.37;96104.25;4968761;28;20690;-80
2023/09/05 01:52:03;;;;;;;4.78;2.95;;;;;;;17.31;52.41;96105.88;4982309;28;20188;-80
2023/09/05 01:54:29;;;;;;;4.30;3.10;;;;;;;17.26;52.37;96109.06;4989724;28;20275;-81
2023/09/05 01:56:54;;;;;;;3.20;2.90;;;;;;;17.24;52.55;96111.88;4987780;28;20267;-80
2023/09/05 01:59:20;;;;;;;3.53;3.22;;;;;;;17.17;52.42;96104.84;4978932;28;20211;-80
2023/09/05 02:01:46;;;;;;;3.60;3.03;;;;;;;17.18;52.66;96102.06;5003256;28;20266;-80
2023/09/05 02:04:11;;;;;;;3.63;3.10;;;;;;;17.23;52.02;96104.97;4982610;28;20618;-80
2023/09/05 02:06:36;;;;;;;3.15;2.85;;;;;;;17.15;52.06;96094.53;4981290;28;20255;-80
2023/09/05 02:09:02;;;;;;;3.10;2.80;;;;;;;17.21;52.02;96098.25;4961424;28;20220;-80
2023/09/05 02:11:27;;;;;;;3.38;2.78;;;;;;;17.19;52.41;96093.19;4999634;28;20177;-81
2023/09/05 02:13:52;;;;;;;3.20;2.90;;;;;;;17.15;52.48;96091.09;4978052;28;20554;-80
2023/09/05 02:16:24;;;;;;;4.18;2.85;;;;;;;17.15;52.31;96089.28;4983252;28;20732;-80
2023/09/05 02:18:49;;;;;;;3.45;3.13;;;;;;;17.12;52.51;96092.25;4989566;28;20219;-80
2023/09/05 02:21:15;;;;;;;3.50;2.90;;;;;;;17.11;52.90;96097.69;4972121;28;20199;-79
2023/09/05 02:23:41;;;;;;;3.85;3.08;;;;;;;17.02;53.10;96096.09;4974662;28;20244;-79
2023/09/05 02:26:07;;;;;;;3.08;2.70;;;;;;;17.05;52.96;96091.34;4981337;28;20203;-81
2023/09/05 02:28:32;;;;;;;3.63;2.70;;;;;;;17.07;52.93;96101.66;4968504;28;20231;-80
2023/09/05 02:30:57;;;;;;;5.75;2.95;;;;;;;16.93;52.79;96095.31;4983601;28;20757;-81
2023/09/05 02:33:23;;;;;;;3.28;2.83;;;;;;;16.88;53.32;96100.28;4973104;28;20192;-81
2023/09/05 02:35:49;;;;;;;3.10;2.80;;;;;;;16.91;52.71;96097.31;4973831;28;20564;-81
2023/09/05 02:38:14;;;;;;;3.55;2.53;;;;;;;16.84;52.45;96099.00;4987214;28;20275;-80
2023/09/05 02:40:44;;;;;;;3.53;2.70;;;;;;;16.82;52.84;96103.59;4988423;28;20256;-81
2023/09/05 02:43:09;;;;;;;2.83;2.60;;;;;;;16.87;52.82;96089.00;4996888;28;20184;-80
2023/09/05 02:45:35;;;;;;;3.45;2.58;;;;;;;16.83;52.85;96092.94;4972994;28;20706;-81
2023/09/05 02:48:00;;;;;;;3.38;2.65;;;;;;;16.85;52.83;96098.00;4978121;28;20188;-81
2023/09/05 02:50:25;;;;;;;3.22;2.47;;;;;;;16.80;52.94;96098.53;4981134;28;20350;-81
2023/09/05 02:52:51;;;;;;;4.97;2.80;;;;;;;16.84;53.09;96097.19;4988219;28;20195;-81
2023/09/05 02:55:16;;;;;;;5.60;2.80;;;;;;;16.77;52.85;96088.38;4976088;28;20217;-81
2023/09/05 02:57:41;;;;;;;2.85;2.30;;;;;;;16.83;52.99;96086.88;4961660;28;20223;-81
2023/09/05 03:00:07;;;;;;;3.25;2.95;;;;;;;16.82;52.87;96085.25;4979319;28;20295;-81
2023/09/05 03:02:32;;;;;;;2.97;2.58;;;;;;;16.85;52.85;96087.50;4970824;28;20258;-81
2023/09/05 03:04:58;;;;;;;3.72;2.92;;;;;;;16.86;52.90;96078.66;4982354;28;20658;-81
2023/09/05 03:07:23;;;;;;;4.05;3.08;;;;;;;16.79;53.22;96080.34;4983673;28;20176;-81
2023/09/05 03:09:52;;;;;;;4.07;3.35;;;;;;;16.76;53.64;96086.72;4993625;28;20245;-81
2023/09/05 03:12:17;;;;;;;3.33;2.65;;;;;;;16.74;53.62;96082.66;4986921;28;20180;-81
2023/09/05 03:14:44;;;;;;;3.38;2.90;;;;;;;16.77;53.33;96090.19;4978388;28;20554;-80
2023/09/05 03:17:09;;;;;;;4.15;3.00;;;;;;;16.73;53.56;96081.84;4981760;28;20677;-81
2023/09/05 03:19:38;;;;;;;3.13;2.47;;;;;;;16.73;53.94;96078.41;4971347;28;20337;-81
2023/09/05 03:22:05;;;;;;;3.15;2.85;;;;;;;16.75;54.14;96076.41;4971119;28;20188;-81
2023/09/05 03:24:30;;;;;;;3.67;2.80;;;;;;;16.73;54.27;96076.59;4971771;28;20188;-81
2023/09/05 03:26:55;;;;;;;2.80;2.50;;;;;;;16.76;54.29;96072.81;4979357;28;20557;-79
2023/09/05 03:29:21;;;;;;;4.63;3.22;;;;;;;16.81;54.21;96079.19;4983009;28;20199;-82
2023/09/05 03:31:46;;;;;;;4.15;2.80;;;;;;;16.73;54.39;96078.41;4979040;28;20714;-81
2023/09/05 03:34:12;;;;;;;2.78;2.53;;;;;;;16.75;54.42;96082.47;4972067;28;20184;-81
2023/09/05 03:36:37;;;;;;;2.58;2.38;;;;;;;16.68;54.65;96079.72;4974183;28;20195;-81
2023/09/05 03:39:02;;;;;;;3.13;2.70;;;;;;;16.73;54.38;96081.03;4981942;28;20240;-80
2023/09/05 03:41:28;;;;;;;3.97;3.00;;;;;;;16.74;54.43;96080.84;4968138;28;20275;-80
2023/09/05 03:43:54;;;;;;;3.45;3.15;;;;;;;16.74;54.72;96077.41;4974412;28;20192;-81
2023/09/05 03:46:19;;;;;;;3.33;2.60;;;;;;;16.69;54.85;96075.28;4970791;28;20291;-80
2023/09/05 03:48:49;;;;;;;4.07;2.72;;;;;;;16.64;55.05;96072.38;4992825;28;20188;-81
2023/09/05 03:51:15;;;;;;;3.75;2.72;;;;;;;16.67;54.99;96077.25;4984409;28;20177;-81
2023/09/05 03:53:40;;;;;;;3.30;2.75;;;;;;;16.71;54.99;96081.22;4971750;28;20258;-80
2023/09/05 03:56:05;;;;;;;5.18;2.85;;;;;;;16.77;54.95;96074.44;4973946;28;20204;-80
2023/09/05 03:58:31;;;;;;;3.75;2.90;;;;;;;16.68;54.89;96082.34;4974967;28;20243;-80
2023/09/05 04:00:57;;;;;;;3.63;2.65;;;;;;;16.66;55.46;96079.06;4968787;28;20180;-81
2023/09/05 04:03:22;;;;;;;3.67;2.72;;;;;;;16.70;55.34;96082.19;4970944;28;20191;-80
2023/09/05 04:05:47;;;;;;;3.60;2.53;;;;;;;16.61;55.51;96084.03;4982981;28;20192;-79
2023/09/05 04:08:13;;;;;;;3.22;2.92;;;;;;;16.63;55.68;96082.03;4970422;28;20192;-80
2023/09/05 04:10:38;;;;;;;2.80;2.50;;;;;;;16.63;55.47;96079.41;4980393;28;20725;-80
2023/09/05 04:13:03;;;;;;;4.15;2.80;;;;;;;16.57;56.40;96082.72;4968757;28;20195;-80
2023/09/05 04:15:29;;;;;;;2.70;2.47;;;;;;;16.58;56.04;96086.97;4980620;28;20672;-81
2023/09/05 04:17:54;;;;;;;3.50;2.60;;;;;;;16.56;56.08;96085.50;4976389;28;20204;-81
2023/09/05 04:20:19;;;;;;;3.38;2.63;;;;;;;16.58;56.34;96078.28;4983336;28;20212;-81
2023/09/05 04:22:45;;;;;;;3.45;2.88;;;;;;;16.58;56.25;96080.91;4978441;28;20275;-81
2023/09/05 04:25:10;;;;;;;2.95;2.65;;;;;;;16.54;56.33;96083.06;4975227;28;20228;-81
2023/09/05 04:27:36;;;;;;;4.50;2.97;;;;;;;16.48;56.56;96082.94;4978464;28;20227;-82
2023/09/05 04:30:02;;;;;;;4.60;3.20;;;;;;;16.52;56.68;96074.56;4987580;28;20203;-81
2023/09/05 04:32:34;;;;;;;3.20;2.67;;;;;;;16.48;56.59;96075.06;4973752;28;20196;-81
2023/09/05 04:35:01;;;;;;;3.25;2.75;;;;;;;16.47;56.77;96076.88;4977679;28;20581;-81
2023/09/05 04:37:27;;;;;;;2.83;2.50;;;;;;;16.48;56.52;96077.69;4990092;28;20572;-81
2023/09/05 04:39:54;;;;;;;3.92;2.60;;;;;;;16.47;56.59;96074.25;5003332;28;20261;-81
2023/09/05 04:42:19;;;;;;;3.28;2.90;;;;;;;16.44;57.05;96079.84;4989685;28;20186;-81
2023/09/05 04:44:45;;;;;;;3.70;2.50;;;;;;;16.39;57.42;96084.75;4977838;28;20534;-81
2023/09/05 04:47:25;;;;;;;6.65;3.00;;;;;;;16.42;57.36;96084.41;4976690;28;20188;-81
2023/09/05 04:49:51;;;;;;;2.95;2.70;;;;;;;16.32;57.53;96083.81;4971748;28;20212;-81
2023/09/05 04:52:18;;;;;;;5.03;2.80;;;;;;;16.40;57.30;96086.41;4988994;28;20191;-81
2023/09/05 04:54:43;;;;;;;5.32;2.85;;;;;;;16.34;57.66;96082.66;4987307;28;20189;-81
2023/09/05 04:57:10;;;;;;;3.20;2.65;;;;;;;16.41;57.26;96083.59;4990595;28;20644;-83
2023/09/05 04:59:37;;;;;;;3.45;2.83;;;;;;;16.45;57.60;96089.34;4981281;28;20216;-81
2023/09/05 05:02:03;;;;;;;3.88;2.72;;;;;;;16.46;57.50;96090.16;4984886;28;20203;-85
2023/09/05 05:04:28;;;;;;;3.42;2.90;;;;;;;16.45;57.79;96086.72;4977722;28;20211;-85
2023/09/05 05:06:54;;;;;;;3.30;2.78;;;;;;;16.46;57.58;96085.72;4976049;28;20196;-84
2023/09/05 05:09:19;;;;;;;2.85;2.60;;;;;;;16.53;57.29;96089.31;4968178;28;20247;-82
2023/09/05 05:11:44;;;;;;;2.95;2.67;;;;;;;16.49;57.50;96088.00;4993294;28;20681;-85
2023/09/05 05:14:10;;;;;;;4.60;2.70;;;;;;;16.56;57.63;96094.19;4985530;28;20191;-85
2023/09/05 05:16:35;;;;;;;4.15;2.80;;;;;;;16.56;57.43;96091.56;4968889;28;20207;-85
2023/09/05 05:19:00;;;;;;;3.65;2.90;;;;;;;16.59;57.47;96096.47;4965889;28;20222;-84
2023/09/05 05:21:26;;;;;;;3.08;2.78;;;;;;;16.66;57.20;96094.78;4987321;28;20593;-84
2023/09/05 05:23:51;;;;;;;3.55;2.90;;;;;;;16.75;56.95;96095.59;4974841;28;20187;-84
2023/09/05 05:26:16;;;;;;;3.45;2.75;;;;;;;16.72;57.07;96089.91;4985430;28;20193;-84
2023/09/05 05:28:42;;;;;;;5.20;3.00;;;;;;;16.80;57.11;96092.47;4976922;28;20172;-84
2023/09/05 05:31:14;;;;;;;3.17;2.85;;;;;;;16.90;57.03;96098.31;4986517;28;20191;-84
2023/09/05 05:33:39;;;;;;;4.00;3.55;;;;;;;16.89;57.30;96097.50;4984625;28;20192;-84
2023/09/05 05:36:05;;;;;;;5.78;2.60;;;;;;;16.98;56.98;96093.00;4986177;28;20184;-83
2023/09/05 05:38:30;;;;;;;3.72;2.92;;;;;;;16.94;56.99;96104.84;4996290;28;20217;-85
2023/09/05 05:40:57;;;;;;;2.78;2.58;;;;;;;17.05;56.86;96103.59;4963393;28;20286;-83
2023/09/05 05:43:24;;;;;;;3.88;3.10;;;;;;;17.18;56.44;96101.25;4987195;28;20617;-83
2023/09/05 05:45:51;;;;;;;3.50;2.72;;;;;;;17.20;56.33;96110.56;4984872;28;20184;-84
2023/09/05 05:48:17;;;;;;;3.78;2.80;;;;;;;17.24;56.52;96109.25;4984145;28;20176;-83
2023/09/05 05:50:42;;;;;;;3.60;3.03;;;;;;;17.29;56.79;96111.31;4979342;28;20204;-83
2023/09/05 05:53:07;;;;;;;3.35;2.80;;;;;;;17.35;56.51;96113.25;4982239;28;20195;-83
2023/09/05 05:55:33;;;;;;;2.88;2.42;;;;;;;17.44;56.21;96108.75;4984684;28;20196;-83
2023/09/05 05:57:58;;;;;;;2.92;2.60;;;;;;;17.49;56.33;96109.88;4988796;28;20666;-83
2023/09/05 06:00:25;;;;;;;3.05;2.60;;;;;;;17.57;56.17;96114.22;4974693;28;20200;-82
2023/09/05 06:03:11;;;;;;;3.92;2.50;;;;;;;17.59;56.18;96114.88;4991488;28;20322;-85
2023/09/05 06:05:38;;;;;;;2.42;2.22;;;;;;;17.70;55.78;96109.22;4987914;28;20573;-85
2023/09/05 06:08:04;;;;;;;3.30;2.70;;;;;;;17.79;55.62;96108.16;4986502;28;20186;-83
2023/09/05 06:10:30;;;;;;;3.05;2.40;;;;;;;17.83;55.56;96106.78;4992142;28;20208;-77
2023/09/05 06:12:55;;;;;;;3.63;2.35;;;;;;;18.02;55.46;96117.78;4981959;28;20188;-80
2023/09/05 06:15:20;;;;;;;3.20;2.65;;;;;;;18.02;55.33;96115.97;4985664;28;20197;-79
2023/09/05 06:17:46;;;;;;;4.72;2.75;;;;;;;18.16;55.17;96121.41;4985235;28;20242;-79
2023/09/05 06:20:11;;;;;;;3.95;2.63;;;;;;;18.08;54.98;96123.13;4984916;28;20204;-79
2023/09/05 06:22:38;;;;;;;4.10;2.70;;;;;;;18.13;55.03;96114.72;4973047;28;20192;-78
2023/09/05 06:25:05;;;;;;;2.88;2.30;;;;;;;18.31;54.64;96112.53;4961950;28;20190;-79
2023/09/05 06:27:31;;;;;;;3.72;2.42;;;;;;;18.36;55.53;96111.97;4982828;28;20188;-78
2023/09/05 06:29:56;;;;;;;4.18;2.42;;;;;;;18.42;55.11;96120.97;4985405;28;20192;-79
2023/09/05 06:32:22;;;;;;;3.75;2.58;;;;;;;18.50;54.91;96119.06;4966949;28;20180;-78
2023/09/05 06:34:47;;;;;;;4.25;2.50;;;;;;;18.54;54.96;96120.31;4959620;28;20190;-78
2023/09/05 06:37:12;;;;;;;3.38;2.17;;;;;;;18.52;55.46;96114.44;4986951;28;20179;-78
2023/09/05 06:39:38;;;;;;;3.08;2.20;;;;;;;18.58;54.70;96118.16;4988339;28;20223;-78
2023/09/05 06:42:04;;;;;;;2.83;2.53;;;;;;;18.68;55.17;96126.59;4968542;28;20184;-78
2023/09/05 06:44:30;;;;;;;2.92;2.60;;;;;;;18.76;55.12;96129.13;4978768;28;20192;-80
2023/09/05 06:46:55;;;;;;;3.33;2.83;;;;;;;18.78;55.61;96123.69;4996029;28;20186;-80
2023/09/05 06:49:20;;;;;;;3.63;2.40;;;;;;;18.80;55.50;96125.13;4985901;28;20203;-82
2023/09/05 06:51:45;;;;;;;3.45;2.83;;;;;;;18.91;55.41;96126.47;4983109;28;20184;-82
2023/09/05 06:54:11;;;;;;;2.85;2.65;;;;;;;19.02;55.06;96128.63;4977812;28;20705;-81
2023/09/05 06:56:36;;;;;;;2.60;2.40;;;;;;;19.07;54.97;96130.69;4974813;28;20271;-82
2023/09/05 06:59:01;;;;;;;5.93;2.33;;;;;;;19.06;55.11;96129.03;4995155;28;20301;-80
2023/09/05 07:01:28;;;;;;;3.88;2.75;;;;;;;19.05;55.19;96130.06;4983621;28;20243;-81
2023/09/05 07:03:53;;;;;;;2.22;1.92;;;;;;;19.20;54.71;96130.84;4965764;28;20243;-81
2023/09/05 07:06:19;;;;;;;3.47;3.17;;;;;;;19.04;54.90;96125.78;4966167;28;20188;-81
2023/09/05 07:08:45;;;;;;;4.50;2.70;;;;;;;19.21;54.52;96124.56;4978779;28;20188;-80
2023/09/05 07:11:11;;;;;;;4.10;2.63;;;;;;;19.19;55.38;96130.03;4979803;28;20186;-81
2023/09/05 07:13:36;;;;;;;3.90;2.60;;;;;;;19.18;54.68;96132.84;4980115;28;20271;-80
2023/09/05 07:16:01;;;;;;;4.90;2.55;;;;;;;19.22;54.39;96126.19;4979728;28;20274;-79
2023/09/05 07:18:27;;;;;;;3.67;2.30;;;;;;;19.35;54.71;96128.97;4985219;28;20222;-80
2023/09/05 07:20:52;;;;;;;3.20;2.63;;;;;;;19.32;54.66;96123.25;4969778;28;20218;-78
2023/09/05 07:23:17;;;;;;;3.40;2.63;;;;;;;19.33;54.22;96123.06;4977058;28;20218;-80
2023/09/05 07:25:42;;;;;;;3.03;2.42;;;;;;;19.50;53.86;96119.16;4981546;28;20177;-80
2023/09/05 07:28:08;;;;;;;3.30;2.97;;;;;;;19.61;53.69;96125.75;4967371;28;20184;-80
2023/09/05 07:30:34;;;;;;;2.45;2.20;;;;;;;19.74;53.71;96117.16;4979874;28;20226;-77
2023/09/05 07:32:59;;;;;;;2.60;2.30;;;;;;;19.80;53.11;96119.06;4973395;28;20184;-79
2023/09/05 07:35:25;;;;;;;3.08;2.25;;;;;;;19.90;53.71;96122.16;4979781;28;20183;-80
2023/09/05 07:37:51;;;;;;;2.63;2.42;;;;;;;19.99;53.49;96120.19;4980582;28;20215;-79
2023/09/05 07:40:16;;;;;;;3.90;2.28;;;;;;;20.06;53.72;96118.44;4991546;28;20520;-80
2023/09/05 07:42:42;;;;;;;2.42;2.15;;;;;;;20.07;53.10;96120.88;4976090;28;20192;-79
2023/09/05 07:45:10;;;;;;;3.63;2.70;;;;;;;20.15;53.17;96119.09;4974113;28;20183;-78
2023/09/05 07:47:36;;;;;;;4.68;2.72;;;;;;;20.27;53.25;96120.19;4977214;28;20261;-79
2023/09/05 07:50:02;;;;;;;3.33;2.65;;;;;;;20.41;53.37;96113.97;4985068;28;20207;-79
2023/09/05 07:52:27;;;;;;;2.50;2.30;;;;;;;20.44;53.15;96124.16;4997478;28;20184;-79
2023/09/05 07:54:52;;;;;;;2.95;2.53;;;;;;;20.55;52.11;96126.25;4987430;28;20204;-79
2023/09/05 07:57:18;;;;;;;4.00;2.55;;;;;;;20.56;52.37;96130.50;4976819;28;20264;-81
2023/09/05 07:59:44;;;;;;;2.67;2.47;;;;;;;20.64;52.43;96132.97;4980153;28;20628;-82
2023/09/05 08:02:10;;;;;;;2.60;2.38;;;;;;;20.73;52.25;96138.09;4990752;28;20187;-79
2023/09/05 08:04:37;;;;;;;4.55;2.20;;;;;;;20.81;51.59;96146.66;4987736;28;20188;-80
2023/09/05 08:07:02;;;;;;;3.75;2.13;;;;;;;20.86;50.81;96143.44;4977407;28;20566;-79
2023/09/05 08:09:27;;;;;;;3.97;2.80;;;;;;;21.04;52.43;96143.72;4994392;28;20205;-80
2023/09/05 08:11:53;;;;;;;5.72;2.70;;;;;;;21.23;51.71;96143.97;5016516;28;20187;-80
2023/09/05 08:14:18;;;;;;;3.60;2.22;;;;;;;21.13;50.48;96145.16;4986362;28;20219;-80
2023/09/05 08:16:43;;;;;;;2.22;2.03;;;;;;;21.29;49.60;96144.03;4986390;28;20704;-79
2023/09/05 08:19:09;;;;;;;3.10;1.77;;;;;;;21.29;48.02;96146.66;4990700;28;20226;-80
2023/09/05 08:21:35;;;;;;;4.78;2.08;;;;;;;21.34;48.11;96146.06;4991568;28;20199;-80
2023/09/05 08:24:00;;;;;;;2.55;2.10;;;;;;;21.35;48.59;96147.69;4984090;28;20242;-82
2023/09/05 08:26:25;;;;;;;4.20;2.22;;;;;;;21.41;48.17;96152.16;5005599;28;20188;-83
2023/09/05 08:28:51;;;;;;;5.85;2.22;;;;;;;21.62;47.51;96146.69;4985146;28;20208;-81
2023/09/05 08:31:16;;;;;;;2.33;2.13;;;;;;;21.85;47.69;96142.84;4990002;28;20665;-81
2023/09/05 08:33:42;;;;;;;2.20;2.00;;;;;;;21.88;48.16;96145.09;4973058;28;20224;-79
2023/09/05 08:36:09;;;;;;;2.38;2.08;;;;;;;21.82;48.15;96151.19;4991762;28;20283;-80
2023/09/05 08:38:37;;;;;;;2.83;2.30;;;;;;;21.80;47.39;96154.03;4980432;28;20599;-80
2023/09/05 08:41:03;;;;;;;4.32;2.13;;;;;;;22.00;47.24;96141.66;4972928;28;20198;-81
2023/09/05 08:43:29;;;;;;;2.30;2.10;;;;;;;22.24;47.44;96144.69;4997674;28;20185;-81
2023/09/05 08:45:55;;;;;;;3.63;2.28;;;;;;;22.29;47.92;96139.59;4980494;28;20190;-81
2023/09/05 08:48:21;;;;;;;2.08;1.75;;;;;;;22.47;46.48;96144.25;4981734;28;20191;-81
2023/09/05 08:50:46;;;;;;;3.42;2.28;;;;;;;22.43;47.85;96137.72;4984878;28;20302;-81
2023/09/05 08:53:15;;;;;;;2.70;2.20;;;;;;;22.65;46.99;96133.00;4985117;28;20191;-81
2023/09/05 08:55:41;;;;;;;2.13;1.75;;;;;;;22.61;46.11;96138.69;4976103;28;20188;-80
2023/09/05 08:58:14;;;;;;;3.13;2.38;;;;;;;22.87;46.47;96137.81;4972288;28;20201;-80
2023/09/05 09:00:39;;;;;;;4.07;2.20;;;;;;;22.92;45.77;96144.34;4985655;28;20717;-80
2023/09/05 09:03:06;;;;;;;3.15;2.08;;;;;;;22.91;45.45;96145.34;4975754;28;20194;-81
2023/09/05 09:05:32;;;;;;;4.70;2.33;;;;;;;22.86;44.99;96145.97;4985842;28;20180;-82
2023/09/05 09:07:57;;;;;;;3.33;2.10;;;;;;;23.02;45.08;96142.84;4981837;28;20238;-81
2023/09/05 09:10:23;;;;;;;2.20;2.00;;;;;;;23.16;46.04;96141.78;4975538;28;20200;-81
2023/09/05 09:12:54;;;;;;;3.70;2.08;;;;;;;23.11;44.38;96138.94;4983160;28;20651;-81
2023/09/05 09:15:23;;;;;;;3.50;2.55;;;;;;;23.30;44.99;96139.84;4990234;28;20658;-81
2023/09/05 09:17:50;;;;;;;2.10;2.00;;;;;;;23.51;44.91;96128.13;4975349;28;20216;-81
2023/09/05 09:20:16;;;;;;;2.10;1.90;;;;;;;23.33;44.16;96128.84;4978127;28;20219;-81
2023/09/05 09:22:42;;;;;;;2.58;2.08;;;;;;;23.34;43.93;96127.81;4979410;28;20196;-80
2023/09/05 09:25:14;;;;;;;2.45;1.80;;;;;;;23.28;43.63;96125.19;4982674;28;20231;-81
2023/09/05 09:27:42;;;;;;;1.75;1.65;;;;;;;23.35;43.40;96129.44;4990215;28;20192;-81
2023/09/05 09:30:08;;;;;;;3.08;1.75;;;;;;;23.49;43.76;96129.34;4974038;28;20312;-80
2023/09/05 09:32:37;;;;;;;1.77;1.60;;;;;;;23.55;42.93;96133.78;4983487;28;20199;-81
2023/09/05 09:35:06;;;;;;;6.13;2.40;;;;;;;23.67;42.88;96132.09;4982778;28;20274;-81
2023/09/05 09:37:33;;;;;;;3.38;1.83;;;;;;;23.79;42.63;96135.69;4975644;28;20203;-81
2023/09/05 09:39:59;;;;;;;2.25;1.70;;;;;;;23.87;42.50;96132.78;5001364;28;20223;-81
2023/09/05 09:42:25;;;;;;;2.17;1.90;;;;;;;23.98;42.97;96137.38;4989300;28;20530;-81
2023/09/05 09:44:52;;;;;;;2.38;2.17;;;;;;;24.07;41.97;96132.59;4974807;28;20246;-85
2023/09/05 09:47:18;;;;;;;3.20;1.85;;;;;;;24.17;41.92;96124.97;4977891;28;20545;-80
2023/09/05 09:49:46;;;;;;;2.03;1.83;;;;;;;24.39;42.58;96130.72;4987916;28;20199;-79
2023/09/05 09:52:13;;;;;;;2.80;2.10;;;;;;;24.42;42.92;96118.81;4969191;28;20244;-81
2023/09/05 09:54:39;;;;;;;2.78;2.10;;;;;;;24.56;41.41;96120.31;4988941;28;20188;-80
2023/09/05 09:57:05;;;;;;;2.00;1.75;;;;;;;24.37;41.36;96122.13;4991493;28;20183;-80
2023/09/05 09:59:35;;;;;;;2.22;1.85;;;;;;;24.39;41.15;96117.44;4979966;28;20192;-80
2023/09/05 10:02:05;;;;;;;3.67;1.98;;;;;;;24.57;40.96;96111.31;4988684;28;20263;-80
2023/09/05 10:04:31;;;;;;;3.63;2.08;;;;;;;24.77;41.69;96103.13;4986783;28;20206;-80
2023/09/05 10:06:57;;;;;;;3.17;2.05;;;;;;;24.79;41.16;96119.63;4971175;28;20192;-78
2023/09/05 10:09:23;;;;;;;2.95;1.92;;;;;;;24.80;41.31;96121.25;4980772;28;20199;-81
2023/09/05 10:11:52;;;;;;;1.60;1.50;;;;;;;24.98;40.38;96113.25;4982988;28;20235;-83
2023/09/05 10:14:17;;;;;;;2.80;2.00;;;;;;;24.70;40.11;96119.13;4984704;28;20230;-81
2023/09/05 10:16:45;;;;;;;3.92;2.05;;;;;;;24.80;39.70;96115.94;4989712;28;20196;-82
2023/09/05 10:19:12;;;;;;;4.03;2.45;;;;;;;24.61;39.85;96112.50;4987817;28;20210;-82
2023/09/05 10:21:37;;;;;;;3.13;1.77;;;;;;;24.81;40.15;96120.22;4993548;28;20184;-81
2023/09/05 10:24:04;;;;;;;3.70;2.13;;;;;;;24.96;38.96;96115.34;4998124;28;20195;-81
2023/09/05 10:26:30;;;;;;;2.13;1.90;;;;;;;25.21;39.64;96117.09;4987758;28;20211;-81
2023/09/05 10:28:56;;;;;;;2.75;2.10;;;;;;;25.17;41.28;96113.25;4988759;28;20203;-81
2023/09/05 10:31:21;;;;;;;6.10;2.30;;;;;;;25.10;40.27;96114.16;4985387;28;20184;-80
2023/09/05 10:33:47;;;;;;;3.80;2.15;;;;;;;25.21;40.46;96117.09;4976350;28;20203;-82
2023/09/05 10:36:41;;;;;;;2.60;1.90;;;;;;;25.21;40.14;96111.78;4978256;28;20194;-82
2023/09/05 10:39:25;;;;;;;2.35;2.15;;;;;;;25.15;40.82;96113.47;4987831;28;20269;-82
2023/09/05 10:41:51;;;;;;;2.92;2.00;;;;;;;25.25;40.00;96112.94;4997897;28;20198;-83
2023/09/05 10:44:16;;;;;;;3.85;2.10;;;;;;;25.01;39.85;96106.72;4982602;28;20184;-81
2023/09/05 10:46:42;;;;;;;2.58;1.83;;;;;;;25.27;40.44;96108.22;4986373;28;20587;-80
2023/09/05 10:49:14;;;;;;;2.03;1.90;;;;;;;25.50;40.61;96110.94;4987554;28;20223;-81
2023/09/05 10:52:20;;;;;;;2.47;1.92;;;;;;;25.49;38.99;96103.19;4978530;28;20180;-81
2023/09/05 10:54:45;;;;;;;4.70;2.33;;;;;;;25.40;39.61;96100.03;4993596;28;20194;-82
2023/09/05 10:57:36;;;;;;;2.95;1.70;;;;;;;25.69;39.32;96106.34;4982272;28;20184;-82
2023/09/05 11:00:29;;;;;;;2.30;1.95;;;;;;;25.96;37.68;96107.56;4985629;28;20210;-80
2023/09/05 11:03:12;;;;;;;6.45;2.00;;;;;;;25.97;38.23;96103.06;4983321;28;20589;-80
2023/09/05 11:05:40;;;;;;;3.50;1.70;;;;;;;26.16;39.36;96103.78;4973014;28;20187;-79
2023/09/05 11:08:18;;;;;;;2.65;2.00;;;;;;;26.29;39.10;96100.88;4978431;28;20187;-79
2023/09/05 11:10:44;;;;;;;4.45;2.00;;;;;;;26.29;39.21;96102.72;4978144;28;20298;-80
2023/09/05 11:13:11;;;;;;;5.43;2.17;;;;;;;26.26;38.33;96099.47;4977376;28;20282;-79
2023/09/05 11:15:43;;;;;;;3.08;1.90;;;;;;;26.41;38.54;96106.19;4987742;28;20191;-79
2023/09/05 11:18:14;;;;;;;6.70;1.98;;;;;;;26.49;38.05;96100.50;4982361;28;20207;-79
2023/09/05 11:20:41;;;;;;;4.43;2.00;;;;;;;26.49;37.66;96105.84;4992773;28;20195;-80
2023/09/05 11:23:17;;;;;;;4.03;2.10;;;;;;;26.73;37.61;96103.94;4991444;28;20273;-79
2023/09/05 11:25:47;;;;;;;3.55;1.75;;;;;;;26.62;37.73;96102.13;5002133;28;20758;-80
2023/09/05 11:28:13;;;;;;;2.42;1.63;;;;;;;26.85;36.14;96102.06;4987724;28;20238;-81
2023/09/05 11:30:43;;;;;;;3.13;1.98;;;;;;;26.66;36.64;96098.75;4987320;28;20591;-79
2023/09/05 11:33:13;;;;;;;9.55;1.90;;;;;;;26.88;36.26;96103.47;4991396;28;20186;-79